sensor_id;sensor_type;location;lat;lon;timestamp;temperature;humidity
16283;DHT22;8249;48.708;9.030;2022-09-12T00:01:36;11.80;99.90
16283;DHT22;8249;48.708;9.030;2022-09-12T00:04:03;11.70;99.90
16283;DHT22;8249;48.708;9.030;2022-09-12T00:06:32;11.80;99.90
16283;DHT22;8249;48.708;9.030;2022-09-12T00:09:03;11.80;99.90
16283;DHT22;8249;48.708;9.030;2022-09-12T00:11:30;11.70;99.90
16283;DHT22;8249;48.708;9.030;2022-09-12T00:13:59;11.70;99.90
16283;DHT22;8249;48.708;9.030;2022-09-12T00:16:30;11.70;99.90
16283;DHT22;8249;48.708;9.030;2022-09-12T00:18:58;11.70;99.90
16283;DHT22;8249;48.708;9.030;2022-09-12T00:21:25;11.60;99.90
16283;DHT22;8249;48.708;9.030;2022-09-12T00:23:52;11.60;99.90
16283;DHT22;8249;48.708;9.030;2022-09-12T00:26:20;11.60;99.90
16283;DHT22;8249;48.708;9.030;2022-09-12T00:28:47;11.60;99.90
16283;DHT22;8249;48.708;9.030;2022-09-12T00:31:17;11.50;99.90
16283;DHT22;8249;48.708;9.030;2022-09-12T00:33:46;11.50;99.90
16283;DHT22;8249;48.708;9.030;2022-09-12T00:36:15;11.50;99.90
16283;DHT22;8249;48.708;9.030;2022-09-12T00:38:43;11.50;99.90
16283;DHT22;8249;48.708;9.030;2022-09-12T00:41:15;11.50;99.90
16283;DHT22;8249;48.708;9.030;2022-09-12T00:43:44;11.40;99.90
16283;DHT22;8249;48.708;9.030;2022-09-12T00:46:19;11.40;99.90
16283;DHT22;8249;48.708;9.030;2022-09-12T00:48:55;11.50;99.90
16283;DHT22;8249;48.708;9.030;2022-09-12T00:51:23;11.40;99.90
16283;DHT22;8249;48.708;9.030;2022-09-12T00:53:52;11.30;99.90
16283;DHT22;8249;48.708;9.030;2022-09-12T00:56:21;11.30;99.90
16283;DHT22;8249;48.708;9.030;2022-09-12T00:58:53;11.20;99.90
16283;DHT22;8249;48.708;9.030;2022-09-12T01:01:21;11.20;99.90
16283;DHT22;8249;48.708;9.030;2022-09-12T01:03:49;11.20;99.90
16283;DHT22;8249;48.708;9.030;2022-09-12T01:06:20;11.10;99.90
16283;DHT22;8249;48.708;9.030;2022-09-12T01:08:50;11.10;99.90
16283;DHT22;8249;48.708;9.030;2022-09-12T01:11:19;11.10;99.90
16283;DHT22;8249;48.708;9.030;2022-09-12T01:13:47;11.10;99.90
16283;DHT22;8249;48.708;9.030;2022-09-12T01:16:15;11.10;99.90
16283;DHT22;8249;48.708;9.030;2022-09-12T01:18:57;11.20;99.90
16283;DHT22;8249;48.708;9.030;2022-09-12T01:21:34;11.10;99.90
16283;DHT22;8249;48.708;9.030;2022-09-12T01:24:32;11.10;99.90
16283;DHT22;8249;48.708;9.030;2022-09-12T01:27:36;11.10;99.90
16283;DHT22;8249;48.708;9.030;2022-09-12T01:30:32;11.00;99.90
16283;DHT22;8249;48.708;9.030;2022-09-12T01:36:05;11.00;99.90
16283;DHT22;8249;48.708;9.030;2022-09-12T01:38:39;11.00;99.90
16283;DHT22;8249;48.708;9.030;2022-09-12T01:41:14;11.00;99.90
16283;DHT22;8249;48.708;9.030;2022-09-12T01:43:49;11.00;99.90
16283;DHT22;8249;48.708;9.030;2022-09-12T01:46:23;11.00;99.90
16283;DHT22;8249;48.708;9.030;2022-09-12T01:48:56;11.00;99.90
16283;DHT22;8249;48.708;9.030;2022-09-12T01:51:31;11.00;99.90
16283;DHT22;8249;48.708;9.030;2022-09-12T01:54:05;10.90;99.90
16283;DHT22;8249;48.708;9.030;2022-09-12T01:56:35;11.00;99.90
16283;DHT22;8249;48.708;9.030;2022-09-12T01:59:07;10.90;99.90
16283;DHT22;8249;48.708;9.030;2022-09-12T02:01:42;10.90;99.90
16283;DHT22;8249;48.708;9.030;2022-09-12T02:04:14;10.90;99.90
16283;DHT22;8249;48.708;9.030;2022-09-12T02:06:45;10.90;99.90
16283;DHT22;8249;48.708;9.030;2022-09-12T02:09:18;10.80;99.90
16283;DHT22;8249;48.708;9.030;2022-09-12T02:11:47;10.80;99.90
16283;DHT22;8249;48.708;9.030;2022-09-12T02:14:19;10.80;99.90
16283;DHT22;8249;48.708;9.030;2022-09-12T02:16:51;10.80;99.90
16283;DHT22;8249;48.708;9.030;2022-09-12T02:19:22;10.70;99.90
16283;DHT22;8249;48.708;9.030;2022-09-12T02:21:52;10.70;99.90
16283;DHT22;8249;48.708;9.030;2022-09-12T02:24:23;10.70;99.90
16283;DHT22;8249;48.708;9.030;2022-09-12T02:26:56;10.60;99.90
16283;DHT22;8249;48.708;9.030;2022-09-12T02:29:24;10.60;99.90
16283;DHT22;8249;48.708;9.030;2022-09-12T02:31:57;10.60;99.90
16283;DHT22;8249;48.708;9.030;2022-09-12T02:34:35;10.60;99.90
16283;DHT22;8249;48.708;9.030;2022-09-12T02:37:14;10.60;99.90
16283;DHT22;8249;48.708;9.030;2022-09-12T02:39:44;10.60;99.90
16283;DHT22;8249;48.708;9.030;2022-09-12T02:42:12;10.60;99.90
16283;DHT22;8249;48.708;9.030;2022-09-12T02:44:39;10.50;99.90
16283;DHT22;8249;48.708;9.030;2022-09-12T02:47:09;10.50;99.90
16283;DHT22;8249;48.708;9.030;2022-09-12T02:49:38;10.50;99.90
16283;DHT22;8249;48.708;9.030;2022-09-12T02:52:05;10.50;99.90
16283;DHT22;8249;48.708;9.030;2022-09-12T02:54:32;10.40;99.90
16283;DHT22;8249;48.708;9.030;2022-09-12T02:57:00;10.40;99.90
16283;DHT22;8249;48.708;9.030;2022-09-12T02:59:27;10.40;99.90
16283;DHT22;8249;48.708;9.030;2022-09-12T03:02:03;10.40;99.90
16283;DHT22;8249;48.708;9.030;2022-09-12T03:04:52;10.40;99.90
16283;DHT22;8249;48.708;9.030;2022-09-12T03:07:34;10.40;99.90
16283;DHT22;8249;48.708;9.030;2022-09-12T03:10:11;10.40;99.90
16283;DHT22;8249;48.708;9.030;2022-09-12T03:12:48;10.40;99.90
16283;DHT22;8249;48.708;9.030;2022-09-12T03:15:26;10.30;99.90
16283;DHT22;8249;48.708;9.030;2022-09-12T03:18:05;10.20;99.90
16283;DHT22;8249;48.708;9.030;2022-09-12T03:20:44;10.20;99.90
16283;DHT22;8249;48.708;9.030;2022-09-12T03:23:21;10.20;99.90
16283;DHT22;8249;48.708;9.030;2022-09-12T03:25:53;10.20;99.90
16283;DHT22;8249;48.708;9.030;2022-09-12T03:28:22;10.20;99.90
16283;DHT22;8249;48.708;9.030;2022-09-12T03:30:50;10.20;99.90
16283;DHT22;8249;48.708;9.030;2022-09-12T03:33:20;10.20;99.90
16283;DHT22;8249;48.708;9.030;2022-09-12T03:35:49;10.20;99.90
16283;DHT22;8249;48.708;9.030;2022-09-12T03:38:17;10.20;99.90
16283;DHT22;8249;48.708;9.030;2022-09-12T03:40:44;10.20;99.90
16283;DHT22;8249;48.708;9.030;2022-09-12T03:43:12;10.20;99.90
16283;DHT22;8249;48.708;9.030;2022-09-12T03:45:39;10.20;99.90
16283;DHT22;8249;48.708;9.030;2022-09-12T03:48:06;10.20;99.90
16283;DHT22;8249;48.708;9.030;2022-09-12T03:50:33;10.20;99.90
16283;DHT22;8249;48.708;9.030;2022-09-12T03:53:02;10.10;99.90
16283;DHT22;8249;48.708;9.030;2022-09-12T03:55:29;10.10;99.90
16283;DHT22;8249;48.708;9.030;2022-09-12T03:57:56;10.10;99.90
16283;DHT22;8249;48.708;9.030;2022-09-12T04:00:23;10.10;99.90
16283;DHT22;8249;48.708;9.030;2022-09-12T04:02:53;10.10;99.90
16283;DHT22;8249;48.708;9.030;2022-09-12T04:05:22;10.10;99.90
16283;DHT22;8249;48.708;9.030;2022-09-12T04:07:49;10.10;99.90
16283;DHT22;8249;48.708;9.030;2022-09-12T04:10:17;10.10;99.90
16283;DHT22;8249;48.708;9.030;2022-09-12T04:12:45;10.10;99.90
16283;DHT22;8249;48.708;9.030;2022-09-12T04:15:12;10.00;99.90
16283;DHT22;8249;48.708;9.030;2022-09-12T04:17:39;10.00;99.90
16283;DHT22;8249;48.708;9.030;2022-09-12T04:20:06;10.00;99.90
16283;DHT22;8249;48.708;9.030;2022-09-12T04:22:33;10.00;99.90
16283;DHT22;8249;48.708;9.030;2022-09-12T04:25:00;10.00;99.90
16283;DHT22;8249;48.708;9.030;2022-09-12T04:27:29;10.00;99.90
16283;DHT22;8249;48.708;9.030;2022-09-12T04:29:56;10.00;99.90
16283;DHT22;8249;48.708;9.030;2022-09-12T04:32:24;10.00;99.90
16283;DHT22;8249;48.708;9.030;2022-09-12T04:34:51;10.00;99.90
16283;DHT22;8249;48.708;9.030;2022-09-12T04:37:18;10.00;99.90
16283;DHT22;8249;48.708;9.030;2022-09-12T04:39:45;10.00;99.90
16283;DHT22;8249;48.708;9.030;2022-09-12T04:42:13;10.00;99.90
16283;DHT22;8249;48.708;9.030;2022-09-12T04:44:42;9.90;99.90
16283;DHT22;8249;48.708;9.030;2022-09-12T04:47:09;9.90;99.90
16283;DHT22;8249;48.708;9.030;2022-09-12T04:49:36;9.90;99.90
16283;DHT22;8249;48.708;9.030;2022-09-12T04:52:03;9.90;99.90
16283;DHT22;8249;48.708;9.030;2022-09-12T04:54:30;9.90;99.90
16283;DHT22;8249;48.708;9.030;2022-09-12T04:56:57;9.90;99.90
16283;DHT22;8249;48.708;9.030;2022-09-12T04:59:24;10.00;99.90
16283;DHT22;8249;48.708;9.030;2022-09-12T05:01:52;9.90;99.90
16283;DHT22;8249;48.708;9.030;2022-09-12T05:04:19;9.90;99.90
16283;DHT22;8249;48.708;9.030;2022-09-12T05:06:46;9.90;99.90
16283;DHT22;8249;48.708;9.030;2022-09-12T05:09:13;9.90;99.90
16283;DHT22;8249;48.708;9.030;2022-09-12T05:11:43;10.00;99.90
16283;DHT22;8249;48.708;9.030;2022-09-12T05:14:10;9.90;99.90
16283;DHT22;8249;48.708;9.030;2022-09-12T05:16:37;10.00;99.90
16283;DHT22;8249;48.708;9.030;2022-09-12T05:19:06;10.00;99.90
16283;DHT22;8249;48.708;9.030;2022-09-12T05:21:33;10.00;99.90
16283;DHT22;8249;48.708;9.030;2022-09-12T05:24:01;10.10;99.90
16283;DHT22;8249;48.708;9.030;2022-09-12T05:26:30;10.10;99.90
16283;DHT22;8249;48.708;9.030;2022-09-12T05:28:56;10.10;99.90
16283;DHT22;8249;48.708;9.030;2022-09-12T05:31:25;10.10;99.90
16283;DHT22;8249;48.708;9.030;2022-09-12T05:33:54;10.20;99.90
16283;DHT22;8249;48.708;9.030;2022-09-12T05:36:24;10.20;99.90
16283;DHT22;8249;48.708;9.030;2022-09-12T05:38:51;10.20;99.90
16283;DHT22;8249;48.708;9.030;2022-09-12T05:41:20;10.20;99.90
16283;DHT22;8249;48.708;9.030;2022-09-12T05:43:51;10.30;99.90
16283;DHT22;8249;48.708;9.030;2022-09-12T05:46:22;10.40;99.90
16283;DHT22;8249;48.708;9.030;2022-09-12T05:48:50;10.40;99.90
16283;DHT22;8249;48.708;9.030;2022-09-12T05:51:19;10.50;99.90
16283;DHT22;8249;48.708;9.030;2022-09-12T05:53:49;10.50;99.90
16283;DHT22;8249;48.708;9.030;2022-09-12T05:56:18;10.60;99.90
16283;DHT22;8249;48.708;9.030;2022-09-12T05:58:47;10.70;99.90
16283;DHT22;8249;48.708;9.030;2022-09-12T06:01:18;10.80;99.90
16283;DHT22;8249;48.708;9.030;2022-09-12T06:03:46;10.90;99.90
16283;DHT22;8249;48.708;9.030;2022-09-12T06:06:15;11.10;99.90
16283;DHT22;8249;48.708;9.030;2022-09-12T06:08:44;11.20;99.90
16283;DHT22;8249;48.708;9.030;2022-09-12T06:11:15;11.40;99.90
16283;DHT22;8249;48.708;9.030;2022-09-12T06:13:42;11.60;99.90
16283;DHT22;8249;48.708;9.030;2022-09-12T06:16:11;11.80;99.90
16283;DHT22;8249;48.708;9.030;2022-09-12T06:18:39;11.90;99.90
16283;DHT22;8249;48.708;9.030;2022-09-12T06:21:08;12.10;99.90
16283;DHT22;8249;48.708;9.030;2022-09-12T06:23:35;12.30;99.90
16283;DHT22;8249;48.708;9.030;2022-09-12T06:26:03;12.50;99.90
16283;DHT22;8249;48.708;9.030;2022-09-12T06:28:33;12.60;99.90
16283;DHT22;8249;48.708;9.030;2022-09-12T06:31:02;12.80;99.90
16283;DHT22;8249;48.708;9.030;2022-09-12T06:33:32;13.00;99.90
16283;DHT22;8249;48.708;9.030;2022-09-12T06:36:03;13.10;99.90
16283;DHT22;8249;48.708;9.030;2022-09-12T06:38:30;13.30;99.90
16283;DHT22;8249;48.708;9.030;2022-09-12T06:40:57;13.40;99.90
16283;DHT22;8249;48.708;9.030;2022-09-12T06:43:25;13.60;99.90
16283;DHT22;8249;48.708;9.030;2022-09-12T06:45:53;13.80;99.90
16283;DHT22;8249;48.708;9.030;2022-09-12T06:48:20;14.10;99.90
16283;DHT22;8249;48.708;9.030;2022-09-12T06:50:55;14.30;99.90
16283;DHT22;8249;48.708;9.030;2022-09-12T06:53:23;14.50;99.90
16283;DHT22;8249;48.708;9.030;2022-09-12T06:55:55;14.70;99.90
16283;DHT22;8249;48.708;9.030;2022-09-12T06:58:22;14.90;99.90
16283;DHT22;8249;48.708;9.030;2022-09-12T07:00:49;15.10;99.90
16283;DHT22;8249;48.708;9.030;2022-09-12T07:03:18;15.40;99.90
16283;DHT22;8249;48.708;9.030;2022-09-12T07:05:45;15.50;99.90
16283;DHT22;8249;48.708;9.030;2022-09-12T07:08:12;15.70;99.90
16283;DHT22;8249;48.708;9.030;2022-09-12T07:10:39;15.90;99.90
16283;DHT22;8249;48.708;9.030;2022-09-12T07:13:06;16.00;99.90
16283;DHT22;8249;48.708;9.030;2022-09-12T07:15:34;16.10;99.90
16283;DHT22;8249;48.708;9.030;2022-09-12T07:18:01;16.30;99.90
16283;DHT22;8249;48.708;9.030;2022-09-12T07:20:29;16.40;99.90
16283;DHT22;8249;48.708;9.030;2022-09-12T07:22:57;16.60;99.90
16283;DHT22;8249;48.708;9.030;2022-09-12T07:25:25;16.70;99.90
16283;DHT22;8249;48.708;9.030;2022-09-12T07:27:52;16.80;99.90
16283;DHT22;8249;48.708;9.030;2022-09-12T07:30:20;17.10;99.90
16283;DHT22;8249;48.708;9.030;2022-09-12T07:32:50;17.30;99.90
16283;DHT22;8249;48.708;9.030;2022-09-12T07:35:17;17.50;99.90
16283;DHT22;8249;48.708;9.030;2022-09-12T07:37:45;17.70;99.90
16283;DHT22;8249;48.708;9.030;2022-09-12T07:40:12;17.90;99.90
16283;DHT22;8249;48.708;9.030;2022-09-12T07:42:39;18.00;99.90
16283;DHT22;8249;48.708;9.030;2022-09-12T07:45:07;18.30;99.90
16283;DHT22;8249;48.708;9.030;2022-09-12T07:47:34;18.50;99.90
16283;DHT22;8249;48.708;9.030;2022-09-12T07:50:01;18.80;99.90
16283;DHT22;8249;48.708;9.030;2022-09-12T07:52:28;18.90;99.90
16283;DHT22;8249;48.708;9.030;2022-09-12T07:54:57;18.90;99.90
16283;DHT22;8249;48.708;9.030;2022-09-12T07:57:24;19.00;99.90
16283;DHT22;8249;48.708;9.030;2022-09-12T07:59:51;19.10;99.90
16283;DHT22;8249;48.708;9.030;2022-09-12T08:02:17;19.50;99.90
16283;DHT22;8249;48.708;9.030;2022-09-12T08:04:46;19.80;99.90
16283;DHT22;8249;48.708;9.030;2022-09-12T08:07:14;20.20;99.90
16283;DHT22;8249;48.708;9.030;2022-09-12T08:09:42;20.80;99.90
16283;DHT22;8249;48.708;9.030;2022-09-12T08:12:11;21.20;99.90
16283;DHT22;8249;48.708;9.030;2022-09-12T08:14:38;21.80;99.90
16283;DHT22;8249;48.708;9.030;2022-09-12T08:17:05;22.20;99.90
16283;DHT22;8249;48.708;9.030;2022-09-12T08:19:32;22.70;99.90
16283;DHT22;8249;48.708;9.030;2022-09-12T08:21:59;22.90;99.90
16283;DHT22;8249;48.708;9.030;2022-09-12T08:24:26;22.90;99.90
16283;DHT22;8249;48.708;9.030;2022-09-12T08:26:53;23.00;99.90
16283;DHT22;8249;48.708;9.030;2022-09-12T08:29:21;23.20;99.90
16283;DHT22;8249;48.708;9.030;2022-09-12T08:31:48;23.50;99.90
16283;DHT22;8249;48.708;9.030;2022-09-12T08:34:15;23.70;99.90
16283;DHT22;8249;48.708;9.030;2022-09-12T08:36:44;24.00;99.90
16283;DHT22;8249;48.708;9.030;2022-09-12T08:39:11;24.50;99.90
16283;DHT22;8249;48.708;9.030;2022-09-12T08:41:40;24.70;99.90
16283;DHT22;8249;48.708;9.030;2022-09-12T08:44:20;24.90;99.90
16283;DHT22;8249;48.708;9.030;2022-09-12T08:47:10;24.90;99.90
16283;DHT22;8249;48.708;9.030;2022-09-12T08:49:49;24.90;99.90
16283;DHT22;8249;48.708;9.030;2022-09-12T08:52:23;25.00;99.90
16283;DHT22;8249;48.708;9.030;2022-09-12T08:54:51;25.10;99.90
16283;DHT22;8249;48.708;9.030;2022-09-12T08:57:21;25.40;99.90
16283;DHT22;8249;48.708;9.030;2022-09-12T08:59:49;25.30;99.90
16283;DHT22;8249;48.708;9.030;2022-09-12T09:02:39;25.20;99.90
16283;DHT22;8249;48.708;9.030;2022-09-12T09:05:17;25.20;99.90
16283;DHT22;8249;48.708;9.030;2022-09-12T09:08:23;25.30;99.90
16283;DHT22;8249;48.708;9.030;2022-09-12T09:11:00;25.60;99.90
16283;DHT22;8249;48.708;9.030;2022-09-12T09:13:37;25.80;99.90
16283;DHT22;8249;48.708;9.030;2022-09-12T09:16:30;26.00;99.90
16283;DHT22;8249;48.708;9.030;2022-09-12T09:19:01;26.80;99.90
16283;DHT22;8249;48.708;9.030;2022-09-12T09:21:32;27.00;98.50
16283;DHT22;8249;48.708;9.030;2022-09-12T09:24:04;27.10;97.90
16283;DHT22;8249;48.708;9.030;2022-09-12T09:26:40;27.40;97.40
16283;DHT22;8249;48.708;9.030;2022-09-12T09:29:16;26.90;98.00
16283;DHT22;8249;48.708;9.030;2022-09-12T09:31:46;27.20;97.30
16283;DHT22;8249;48.708;9.030;2022-09-12T09:34:19;27.40;96.80
16283;DHT22;8249;48.708;9.030;2022-09-12T09:36:51;27.70;96.40
16283;DHT22;8249;48.708;9.030;2022-09-12T09:39:39;28.30;95.20
16283;DHT22;8249;48.708;9.030;2022-09-12T09:42:25;28.60;94.10
16283;DHT22;8249;48.708;9.030;2022-09-12T09:44:55;28.80;94.90
16283;DHT22;8249;48.708;9.030;2022-09-12T09:47:24;29.10;93.10
16283;DHT22;8249;48.708;9.030;2022-09-12T09:49:52;28.80;92.70
16283;DHT22;8249;48.708;9.030;2022-09-12T09:52:24;28.90;93.00
16283;DHT22;8249;48.708;9.030;2022-09-12T09:54:56;28.80;91.90
16283;DHT22;8249;48.708;9.030;2022-09-12T09:57:40;28.70;91.60
16283;DHT22;8249;48.708;9.030;2022-09-12T10:00:25;28.80;91.70
16283;DHT22;8249;48.708;9.030;2022-09-12T10:05:49;29.10;91.60
16283;DHT22;8249;48.708;9.030;2022-09-12T10:08:21;29.80;90.70
16283;DHT22;8249;48.708;9.030;2022-09-12T10:10:56;30.30;89.20
16283;DHT22;8249;48.708;9.030;2022-09-12T10:13:28;30.50;83.80
16283;DHT22;8249;48.708;9.030;2022-09-12T10:15:59;30.10;84.10
16283;DHT22;8249;48.708;9.030;2022-09-12T10:18:35;30.30;84.10
16283;DHT22;8249;48.708;9.030;2022-09-12T10:21:12;30.30;84.30
16283;DHT22;8249;48.708;9.030;2022-09-12T10:23:41;30.50;82.40
16283;DHT22;8249;48.708;9.030;2022-09-12T10:26:10;30.70;80.00
16283;DHT22;8249;48.708;9.030;2022-09-12T10:28:41;30.90;80.10
16283;DHT22;8249;48.708;9.030;2022-09-12T10:31:13;31.00;79.90
16283;DHT22;8249;48.708;9.030;2022-09-12T10:33:43;30.90;73.90
16283;DHT22;8249;48.708;9.030;2022-09-12T10:36:18;30.90;76.00
16283;DHT22;8249;48.708;9.030;2022-09-12T10:38:50;30.80;74.70
16283;DHT22;8249;48.708;9.030;2022-09-12T10:41:19;31.00;74.90
16283;DHT22;8249;48.708;9.030;2022-09-12T10:43:46;31.50;68.60
16283;DHT22;8249;48.708;9.030;2022-09-12T10:46:28;31.70;67.80
16283;DHT22;8249;48.708;9.030;2022-09-12T10:51:57;31.90;68.50
16283;DHT22;8249;48.708;9.030;2022-09-12T10:54:41;31.30;68.10
16283;DHT22;8249;48.708;9.030;2022-09-12T10:57:35;30.90;69.80
16283;DHT22;8249;48.708;9.030;2022-09-12T11:00:09;31.00;70.10
16283;DHT22;8249;48.708;9.030;2022-09-12T11:03:02;30.90;70.80
16283;DHT22;8249;48.708;9.030;2022-09-12T11:05:47;31.30;71.60
16283;DHT22;8249;48.708;9.030;2022-09-12T11:08:37;31.90;71.80
16283;DHT22;8249;48.708;9.030;2022-09-12T11:11:13;31.70;68.90
16283;DHT22;8249;48.708;9.030;2022-09-12T11:13:54;31.70;67.00
16283;DHT22;8249;48.708;9.030;2022-09-12T11:16:30;31.40;68.80
16283;DHT22;8249;48.708;9.030;2022-09-12T11:19:17;31.50;70.00
16283;DHT22;8249;48.708;9.030;2022-09-12T11:21:56;32.20;66.90
16283;DHT22;8249;48.708;9.030;2022-09-12T11:24:39;31.80;65.70
16283;DHT22;8249;48.708;9.030;2022-09-12T11:27:33;31.80;65.70
16283;DHT22;8249;48.708;9.030;2022-09-12T11:30:04;31.90;66.00
16283;DHT22;8249;48.708;9.030;2022-09-12T11:32:45;31.50;65.30
16283;DHT22;8249;48.708;9.030;2022-09-12T11:35:19;31.30;65.40
16283;DHT22;8249;48.708;9.030;2022-09-12T11:40:54;31.90;66.50
16283;DHT22;8249;48.708;9.030;2022-09-12T11:43:30;31.80;64.80
16283;DHT22;8249;48.708;9.030;2022-09-12T11:46:04;32.00;65.40
16283;DHT22;8249;48.708;9.030;2022-09-12T11:48:37;32.20;66.70
16283;DHT22;8249;48.708;9.030;2022-09-12T11:51:16;32.50;64.40
16283;DHT22;8249;48.708;9.030;2022-09-12T11:53:56;32.60;65.80
16283;DHT22;8249;48.708;9.030;2022-09-12T11:56:26;33.20;64.50
16283;DHT22;8249;48.708;9.030;2022-09-12T11:58:58;33.40;65.80
16283;DHT22;8249;48.708;9.030;2022-09-12T12:01:31;33.80;62.20
16283;DHT22;8249;48.708;9.030;2022-09-12T12:04:05;33.40;62.40
16283;DHT22;8249;48.708;9.030;2022-09-12T12:06:44;33.70;62.60
16283;DHT22;8249;48.708;9.030;2022-09-12T12:09:12;33.80;62.30
16283;DHT22;8249;48.708;9.030;2022-09-12T12:11:46;34.00;63.90
16283;DHT22;8249;48.708;9.030;2022-09-12T12:14:16;34.80;63.90
16283;DHT22;8249;48.708;9.030;2022-09-12T12:16:45;35.70;62.60
16283;DHT22;8249;48.708;9.030;2022-09-12T12:19:30;36.20;60.40
16283;DHT22;8249;48.708;9.030;2022-09-12T12:22:05;36.50;58.80
16283;DHT22;8249;48.708;9.030;2022-09-12T12:24:33;36.60;59.70
16283;DHT22;8249;48.708;9.030;2022-09-12T12:27:03;36.70;56.60
16283;DHT22;8249;48.708;9.030;2022-09-12T12:29:39;36.40;56.00
16283;DHT22;8249;48.708;9.030;2022-09-12T12:32:23;36.30;56.90
16283;DHT22;8249;48.708;9.030;2022-09-12T12:37:51;36.60;56.80
16283;DHT22;8249;48.708;9.030;2022-09-12T12:40:23;36.40;56.20
16283;DHT22;8249;48.708;9.030;2022-09-12T12:42:59;36.10;57.00
16283;DHT22;8249;48.708;9.030;2022-09-12T12:45:48;36.40;57.60
16283;DHT22;8249;48.708;9.030;2022-09-12T12:48:25;36.80;57.10
16283;DHT22;8249;48.708;9.030;2022-09-12T12:50:52;36.50;56.30
16283;DHT22;8249;48.708;9.030;2022-09-12T12:53:21;36.90;56.40
16283;DHT22;8249;48.708;9.030;2022-09-12T12:55:50;37.20;56.30
16283;DHT22;8249;48.708;9.030;2022-09-12T12:58:28;37.30;56.50
16283;DHT22;8249;48.708;9.030;2022-09-12T13:01:09;37.10;56.30
16283;DHT22;8249;48.708;9.030;2022-09-12T13:03:39;37.50;56.00
16283;DHT22;8249;48.708;9.030;2022-09-12T13:06:08;37.80;55.30
16283;DHT22;8249;48.708;9.030;2022-09-12T13:08:55;37.60;54.00
16283;DHT22;8249;48.708;9.030;2022-09-12T13:11:31;37.40;55.20
16283;DHT22;8249;48.708;9.030;2022-09-12T13:14:01;37.60;55.10
16283;DHT22;8249;48.708;9.030;2022-09-12T13:16:34;38.10;55.00
16283;DHT22;8249;48.708;9.030;2022-09-12T13:19:03;38.10;53.40
16283;DHT22;8249;48.708;9.030;2022-09-12T13:21:31;37.60;53.60
16283;DHT22;8249;48.708;9.030;2022-09-12T13:24:00;37.30;54.30
16283;DHT22;8249;48.708;9.030;2022-09-12T13:26:27;37.50;54.10
16283;DHT22;8249;48.708;9.030;2022-09-12T13:29:17;37.60;52.90
16283;DHT22;8249;48.708;9.030;2022-09-12T13:31:47;37.50;52.40
16283;DHT22;8249;48.708;9.030;2022-09-12T13:34:17;37.50;52.70
16283;DHT22;8249;48.708;9.030;2022-09-12T13:39:44;37.20;53.30
16283;DHT22;8249;48.708;9.030;2022-09-12T13:42:38;36.80;52.00
16283;DHT22;8249;48.708;9.030;2022-09-12T13:45:12;36.50;52.80
16283;DHT22;8249;48.708;9.030;2022-09-12T13:47:41;36.80;51.70
16283;DHT22;8249;48.708;9.030;2022-09-12T13:50:17;36.70;52.40
16283;DHT22;8249;48.708;9.030;2022-09-12T13:52:47;36.50;53.10
16283;DHT22;8249;48.708;9.030;2022-09-12T13:55:26;36.80;52.70
16283;DHT22;8249;48.708;9.030;2022-09-12T13:57:58;37.10;52.00
16283;DHT22;8249;48.708;9.030;2022-09-12T14:00:27;37.30;51.70
16283;DHT22;8249;48.708;9.030;2022-09-12T14:02:57;37.60;52.20
16283;DHT22;8249;48.708;9.030;2022-09-12T14:05:44;37.60;52.90
16283;DHT22;8249;48.708;9.030;2022-09-12T14:08:13;37.60;51.80
16283;DHT22;8249;48.708;9.030;2022-09-12T14:10:42;37.50;52.30
16283;DHT22;8249;48.708;9.030;2022-09-12T14:13:15;37.10;52.60
16283;DHT22;8249;48.708;9.030;2022-09-12T14:15:46;37.00;52.30
16283;DHT22;8249;48.708;9.030;2022-09-12T14:18:22;37.00;52.80
16283;DHT22;8249;48.708;9.030;2022-09-12T14:20:50;37.10;53.40
16283;DHT22;8249;48.708;9.030;2022-09-12T14:23:25;37.70;51.90
16283;DHT22;8249;48.708;9.030;2022-09-12T14:25:53;37.50;51.90
16283;DHT22;8249;48.708;9.030;2022-09-12T14:28:21;37.60;51.70
16283;DHT22;8249;48.708;9.030;2022-09-12T14:31:04;37.70;52.50
16283;DHT22;8249;48.708;9.030;2022-09-12T14:33:33;37.50;51.90
16283;DHT22;8249;48.708;9.030;2022-09-12T14:36:09;37.70;52.00
16283;DHT22;8249;48.708;9.030;2022-09-12T14:38:41;37.30;52.20
16283;DHT22;8249;48.708;9.030;2022-09-12T14:41:10;37.00;52.60
16283;DHT22;8249;48.708;9.030;2022-09-12T14:43:41;37.10;52.50
16283;DHT22;8249;48.708;9.030;2022-09-12T14:46:17;36.70;52.00
16283;DHT22;8249;48.708;9.030;2022-09-12T14:48:49;36.00;52.90
16283;DHT22;8249;48.708;9.030;2022-09-12T14:51:20;35.90;53.50
16283;DHT22;8249;48.708;9.030;2022-09-12T14:53:49;35.80;53.40
16283;DHT22;8249;48.708;9.030;2022-09-12T14:56:16;35.80;53.50
16283;DHT22;8249;48.708;9.030;2022-09-12T14:58:46;35.50;53.80
16283;DHT22;8249;48.708;9.030;2022-09-12T15:01:27;36.20;53.30
16283;DHT22;8249;48.708;9.030;2022-09-12T15:03:54;36.70;53.70
16283;DHT22;8249;48.708;9.030;2022-09-12T15:06:25;36.90;53.40
16283;DHT22;8249;48.708;9.030;2022-09-12T15:08:53;37.30;53.10
16283;DHT22;8249;48.708;9.030;2022-09-12T15:11:21;37.80;53.00
16283;DHT22;8249;48.708;9.030;2022-09-12T15:13:48;37.90;52.70
16283;DHT22;8249;48.708;9.030;2022-09-12T15:16:15;37.90;52.10
16283;DHT22;8249;48.708;9.030;2022-09-12T15:18:44;37.30;51.50
16283;DHT22;8249;48.708;9.030;2022-09-12T15:21:14;36.70;52.70
16283;DHT22;8249;48.708;9.030;2022-09-12T15:23:44;36.30;53.00
16283;DHT22;8249;48.708;9.030;2022-09-12T15:26:14;36.40;52.20
16283;DHT22;8249;48.708;9.030;2022-09-12T15:28:40;36.40;52.50
16283;DHT22;8249;48.708;9.030;2022-09-12T15:31:12;36.80;52.80
16283;DHT22;8249;48.708;9.030;2022-09-12T15:33:41;36.70;52.50
16283;DHT22;8249;48.708;9.030;2022-09-12T15:36:14;36.90;53.10
16283;DHT22;8249;48.708;9.030;2022-09-12T15:38:42;36.90;52.80
16283;DHT22;8249;48.708;9.030;2022-09-12T15:41:11;36.80;52.80
16283;DHT22;8249;48.708;9.030;2022-09-12T15:43:39;36.30;53.10
16283;DHT22;8249;48.708;9.030;2022-09-12T15:46:09;36.30;53.10
16283;DHT22;8249;48.708;9.030;2022-09-12T15:48:37;36.30;52.70
16283;DHT22;8249;48.708;9.030;2022-09-12T15:51:04;36.10;52.70
16283;DHT22;8249;48.708;9.030;2022-09-12T15:53:34;35.90;52.70
16283;DHT22;8249;48.708;9.030;2022-09-12T15:56:01;35.70;51.20
16283;DHT22;8249;48.708;9.030;2022-09-12T15:58:28;35.70;51.50
16283;DHT22;8249;48.708;9.030;2022-09-12T16:00:55;35.00;53.00
16283;DHT22;8249;48.708;9.030;2022-09-12T16:03:23;34.70;54.70
16283;DHT22;8249;48.708;9.030;2022-09-12T16:05:55;34.40;55.40
16283;DHT22;8249;48.708;9.030;2022-09-12T16:08:22;34.30;55.40
16283;DHT22;8249;48.708;9.030;2022-09-12T16:10:52;34.00;56.20
16283;DHT22;8249;48.708;9.030;2022-09-12T16:13:20;32.70;56.90
16283;DHT22;8249;48.708;9.030;2022-09-12T16:15:47;31.20;58.30
16283;DHT22;8249;48.708;9.030;2022-09-12T16:18:14;30.10;59.80
16283;DHT22;8249;48.708;9.030;2022-09-12T16:20:41;29.00;61.20
16283;DHT22;8249;48.708;9.030;2022-09-12T16:23:10;28.20;62.80
16283;DHT22;8249;48.708;9.030;2022-09-12T16:25:37;27.50;64.00
16283;DHT22;8249;48.708;9.030;2022-09-12T16:28:06;26.80;65.60
16283;DHT22;8249;48.708;9.030;2022-09-12T16:30:33;26.40;66.60
16283;DHT22;8249;48.708;9.030;2022-09-12T16:33:00;26.10;67.40